createdAt,value
2019-01-18T04:01:01.505Z,985.95
2019-01-18T04:02:01.581Z,985.96
2019-01-18T04:03:02.359Z,986.02
2019-01-18T04:04:02.052Z,986.05
2019-01-18T04:05:02.195Z,986.06
2019-01-18T04:06:03.073Z,986.04
2019-01-18T04:07:02.497Z,986.13
2019-01-18T04:08:02.693Z,986.16
2019-01-18T04:09:02.904Z,986.16
2019-01-18T04:10:03.045Z,986.17
2019-01-18T04:11:03.271Z,986.21
2019-01-18T04:12:03.425Z,986.22
2019-01-18T04:13:03.797Z,986.19
2019-01-18T04:14:04.015Z,986.26
2019-01-18T04:15:04.478Z,986.26
2019-01-18T04:16:04.353Z,986.32
2019-01-18T04:17:04.083Z,986.31
2019-01-18T04:18:05.019Z,986.34
2019-01-18T04:19:04.580Z,986.33
2019-01-18T04:20:04.996Z,986.37
2019-01-18T04:21:05.069Z,986.35
2019-01-18T04:22:05.356Z,986.32
2019-01-18T04:23:34.131Z,986.39
2019-01-18T04:24:10.972Z,986.33
2019-01-18T04:28:20.844Z,986.45
2019-01-18T04:29:19.292Z,986.44
2019-01-18T04:32:08.173Z,986.48
2019-01-18T04:33:08.620Z,986.51
2019-01-18T04:34:09.116Z,986.60
2019-01-18T04:35:09.086Z,986.55
2019-01-18T04:36:09.116Z,986.58
2019-01-18T04:37:09.051Z,986.61
2019-01-18T04:38:07.268Z,986.58
2019-01-18T04:39:07.691Z,986.70
2019-01-18T04:40:07.415Z,986.65
2019-01-18T04:41:07.633Z,986.73
2019-01-18T04:42:07.802Z,986.68
2019-01-18T04:43:07.893Z,986.70
2019-01-18T04:44:08.104Z,986.75
2019-01-18T04:45:08.234Z,986.80
2019-01-18T04:46:08.448Z,986.74
2019-01-18T04:47:08.579Z,986.75
2019-01-18T04:48:08.701Z,986.79
2019-01-18T04:49:08.831Z,986.74
2019-01-18T04:50:09.072Z,986.82
2019-01-18T04:51:09.185Z,986.80
2019-01-18T04:52:09.325Z,986.79
2019-01-18T04:53:09.410Z,986.85
2019-01-18T04:54:09.698Z,986.77
2019-01-18T04:55:09.767Z,986.84
2019-01-18T04:56:09.939Z,986.76
2019-01-18T04:57:10.162Z,986.82
2019-01-18T04:58:10.252Z,986.77
2019-01-18T04:59:10.419Z,986.80
2019-01-18T05:00:10.803Z,986.83
2019-01-18T05:01:10.699Z,986.89
2019-01-18T05:02:10.908Z,986.91
2019-01-18T05:03:11.079Z,986.88
2019-01-18T05:04:11.198Z,986.94
2019-01-18T05:05:11.364Z,987.00
2019-01-18T05:06:11.497Z,987.01
2019-01-18T05:07:11.648Z,987.01
2019-01-18T05:08:11.797Z,987.04
2019-01-18T05:09:11.901Z,987.04
2019-01-18T05:10:12.100Z,987.09
2019-01-18T05:11:12.246Z,987.10
2019-01-18T05:12:12.456Z,987.14
2019-01-18T05:13:12.560Z,987.11
2019-01-18T05:14:12.803Z,987.18
2019-01-18T05:15:12.969Z,987.21
2019-01-18T05:16:13.066Z,987.23
2019-01-18T05:17:13.269Z,987.29
2019-01-18T05:18:13.350Z,987.28
2019-01-18T05:19:13.615Z,987.29
2019-01-18T05:20:13.756Z,987.32
2019-01-18T05:21:13.892Z,987.34
2019-01-18T05:22:14.079Z,987.37
2019-01-18T05:23:14.229Z,987.35
2019-01-18T05:24:14.355Z,987.40
2019-01-18T05:25:14.543Z,987.44
2019-01-18T05:26:14.678Z,987.48
2019-01-18T05:27:14.785Z,987.52
2019-01-18T05:28:14.951Z,987.57
2019-01-18T05:29:15.038Z,987.51
2019-01-18T05:30:15.387Z,987.57
2019-01-18T05:31:15.432Z,987.56
2019-01-18T05:32:15.599Z,987.59
2019-01-18T05:33:15.746Z,987.52
2019-01-18T05:34:15.888Z,987.55
2019-01-18T05:35:16.052Z,987.56
2019-01-18T05:36:16.159Z,987.57
2019-01-18T05:37:16.407Z,987.61
2019-01-18T05:38:16.518Z,987.64
2019-01-18T05:39:16.708Z,987.64
2019-01-18T05:40:16.815Z,987.66
2019-01-18T05:41:16.990Z,987.67
2019-01-18T05:42:17.171Z,987.69
2019-01-18T05:43:17.268Z,987.69
2019-01-18T05:44:17.461Z,987.70
2019-01-18T05:45:17.562Z,987.74
2019-01-18T05:46:17.791Z,987.69
2019-01-18T05:47:18.505Z,987.72
2019-01-18T05:48:18.068Z,987.73
2019-01-18T05:49:18.217Z,987.77
2019-01-18T05:50:18.333Z,987.77
2019-01-18T05:51:18.515Z,987.81
2019-01-18T05:52:18.662Z,987.86
2019-01-18T05:53:18.778Z,987.83
2019-01-18T05:54:18.971Z,987.90
2019-01-18T05:55:19.101Z,987.92
2019-01-18T05:56:19.215Z,987.91
2019-01-18T05:57:19.452Z,987.92
2019-01-18T05:58:19.634Z,987.93
2019-01-18T05:59:19.742Z,987.96
2019-01-18T06:00:19.902Z,987.98
2019-01-18T06:01:20.070Z,988.01
2019-01-18T06:02:20.225Z,988.02
2019-01-18T06:03:20.349Z,988.05
2019-01-18T06:04:20.471Z,988.07
2019-01-18T06:05:20.671Z,988.11
2019-01-18T06:06:20.801Z,988.11
2019-01-18T06:07:21.026Z,988.19
2019-01-18T06:08:22.017Z,988.15
2019-01-18T06:09:21.394Z,988.16
2019-01-18T06:10:21.593Z,988.20
2019-01-18T06:11:21.756Z,988.20
2019-01-18T06:12:21.848Z,988.24
2019-01-18T06:13:21.998Z,988.26
2019-01-18T06:14:22.215Z,988.29
2019-01-18T06:15:22.422Z,988.31
2019-01-18T06:16:22.531Z,988.30
2019-01-18T06:17:22.676Z,988.32
2019-01-18T06:18:22.821Z,988.35
2019-01-18T06:19:22.989Z,988.35
2019-01-18T06:20:23.200Z,988.32
2019-01-18T06:21:23.328Z,988.38
2019-01-18T06:22:23.574Z,988.36
2019-01-18T06:23:23.667Z,988.39
2019-01-18T06:24:23.835Z,988.40
2019-01-18T06:25:23.999Z,988.40
2019-01-18T06:26:24.058Z,988.43
2019-01-18T06:27:24.317Z,988.46
2019-01-18T06:28:24.484Z,988.50
2019-01-18T06:29:24.662Z,988.45
2019-01-18T06:30:24.777Z,988.50
2019-01-18T06:31:24.884Z,988.58
2019-01-18T06:32:25.103Z,988.53
2019-01-18T06:33:25.250Z,988.54
2019-01-18T06:34:25.459Z,988.59
2019-01-18T06:35:25.546Z,988.59
2019-01-18T06:36:25.746Z,988.61
2019-01-18T06:37:25.851Z,988.62
2019-01-18T06:38:26.081Z,988.61
2019-01-18T06:39:26.192Z,988.63
2019-01-18T06:40:26.425Z,988.72
2019-01-18T06:41:26.540Z,988.68
2019-01-18T06:42:26.669Z,988.72
2019-01-18T06:43:26.793Z,988.74
2019-01-18T06:44:26.922Z,988.75
2019-01-18T06:45:27.162Z,988.75
2019-01-18T06:46:27.284Z,988.77
2019-01-18T06:47:27.522Z,988.81
2019-01-18T06:48:27.690Z,988.83
2019-01-18T06:49:28.636Z,988.85
2019-01-18T06:50:27.983Z,988.89
2019-01-18T06:51:28.151Z,988.86
2019-01-18T06:52:28.278Z,988.89
2019-01-18T06:53:28.467Z,988.88
2019-01-18T06:54:28.632Z,988.93
2019-01-18T06:55:28.764Z,988.96
2019-01-18T06:56:28.825Z,989.00
2019-01-18T06:57:29.138Z,988.95
2019-01-18T06:58:29.205Z,988.98
2019-01-18T06:59:29.398Z,989.00
2019-01-18T07:00:29.504Z,989.02
2019-01-18T07:01:29.718Z,989.10
2019-01-18T07:02:29.849Z,989.08
2019-01-18T07:03:30.042Z,989.08
2019-01-18T07:04:30.201Z,989.11
2019-01-18T07:05:30.329Z,989.12
2019-01-18T07:06:30.605Z,989.11
2019-01-18T07:07:30.650Z,989.14
2019-01-18T07:08:30.752Z,989.12
2019-01-18T07:09:30.944Z,989.16
2019-01-18T07:10:31.075Z,989.17
2019-01-18T07:11:31.187Z,989.19
2019-01-18T07:12:31.362Z,989.21
2019-01-18T07:13:31.600Z,989.27
2019-01-18T07:14:31.729Z,989.29
2019-01-18T07:15:31.990Z,989.30
2019-01-18T07:16:32.972Z,989.33
2019-01-18T07:17:32.256Z,989.37
2019-01-18T07:18:32.297Z,989.41
2019-01-18T07:19:32.410Z,989.39
2019-01-18T07:20:32.661Z,989.41
2019-01-18T07:21:32.808Z,989.47
2019-01-18T07:22:32.913Z,989.45
2019-01-18T07:23:33.082Z,989.47
2019-01-18T07:24:33.253Z,989.46
2019-01-18T07:25:33.431Z,989.47
2019-01-18T07:26:33.589Z,989.47
2019-01-18T07:27:33.741Z,989.47
2019-01-18T07:28:33.938Z,989.52
2019-01-18T07:29:34.031Z,989.55
2019-01-18T07:30:34.266Z,989.57
2019-01-18T07:31:34.406Z,989.59
2019-01-18T07:32:34.498Z,989.63
2019-01-18T07:33:34.779Z,989.64
2019-01-18T07:34:34.958Z,989.68
2019-01-18T07:35:35.040Z,989.69
2019-01-18T07:36:35.217Z,989.71
2019-01-18T07:37:35.336Z,989.72
2019-01-18T07:38:35.505Z,989.69
2019-01-18T07:39:35.642Z,989.72
2019-01-18T07:40:35.794Z,989.75
2019-01-18T07:41:35.956Z,989.77
2019-01-18T07:42:36.162Z,989.77
2019-01-18T07:43:36.227Z,989.77
2019-01-18T07:44:36.403Z,989.80
2019-01-18T07:45:36.532Z,989.81
2019-01-18T07:46:36.813Z,989.85
2019-01-18T07:47:36.878Z,989.92
2019-01-18T07:48:37.088Z,989.94
2019-01-18T07:49:37.268Z,989.90
2019-01-18T07:50:37.343Z,989.94
2019-01-18T07:51:37.595Z,989.90
2019-01-18T07:52:37.781Z,989.89
2019-01-18T07:53:37.937Z,989.94
2019-01-18T07:54:38.179Z,989.91
2019-01-18T07:55:38.303Z,989.92
2019-01-18T07:56:38.357Z,989.97
2019-01-18T07:57:38.659Z,989.93
2019-01-18T07:58:38.691Z,989.96
2019-01-18T07:59:38.874Z,989.97
2019-01-18T08:00:39.023Z,990.03
2019-01-18T08:01:39.162Z,990.05
2019-01-18T08:02:39.369Z,990.08
2019-01-18T08:03:39.502Z,990.14
2019-01-18T08:04:39.601Z,990.15
2019-01-18T08:05:39.823Z,990.17
2019-01-18T08:06:40.054Z,990.25
2019-01-18T08:07:40.175Z,990.30
2019-01-18T08:08:40.275Z,990.29
2019-01-18T08:09:40.551Z,990.32
2019-01-18T08:10:40.569Z,990.35
2019-01-18T08:11:40.720Z,990.34
2019-01-18T08:12:40.936Z,990.39
2019-01-18T08:13:41.083Z,990.36
2019-01-18T08:14:41.217Z,990.38
2019-01-18T08:15:41.445Z,990.46
2019-01-18T08:16:41.536Z,990.46
2019-01-18T08:17:41.678Z,990.44
2019-01-18T08:18:41.792Z,990.50
2019-01-18T08:19:41.985Z,990.53
2019-01-18T08:20:42.153Z,990.53
2019-01-18T08:21:42.279Z,990.53
2019-01-18T08:22:42.501Z,990.53
2019-01-18T08:23:42.632Z,990.55
2019-01-18T08:24:42.732Z,990.53
2019-01-18T08:25:42.960Z,990.57
2019-01-18T08:26:43.074Z,990.59
2019-01-18T08:27:43.226Z,990.58
2019-01-18T08:28:43.456Z,990.64
2019-01-18T08:29:43.780Z,990.66
2019-01-18T08:30:43.768Z,990.70
2019-01-18T08:31:43.850Z,990.78
2019-01-18T08:32:44.111Z,990.76
2019-01-18T08:33:44.279Z,990.78
2019-01-18T08:34:44.428Z,990.80
2019-01-18T08:35:44.635Z,990.80
2019-01-18T08:36:44.860Z,990.87
2019-01-18T08:37:44.932Z,990.80
2019-01-18T08:38:45.092Z,990.78
2019-01-18T08:39:45.210Z,990.78
2019-01-18T08:40:46.860Z,990.77
2019-01-18T08:41:45.608Z,990.80
2019-01-18T08:42:45.796Z,990.81
2019-01-18T08:43:45.872Z,990.88
2019-01-18T08:44:46.168Z,990.89
2019-01-18T08:45:46.296Z,990.91
2019-01-18T08:46:46.521Z,990.93
2019-01-18T08:47:46.723Z,990.98
2019-01-18T08:48:46.794Z,991.00
2019-01-18T08:49:46.888Z,991.03
2019-01-18T08:50:47.129Z,991.08
2019-01-18T08:51:47.401Z,991.08
2019-01-18T08:52:47.417Z,991.07
2019-01-18T08:53:47.610Z,991.09
2019-01-18T08:54:47.803Z,991.05
2019-01-18T08:55:47.979Z,991.07
2019-01-18T08:56:48.124Z,991.12
2019-01-18T08:57:48.237Z,991.09
2019-01-18T08:58:48.432Z,991.14
2019-01-18T08:59:48.566Z,991.13
2019-01-18T09:00:48.754Z,991.16
2019-01-18T09:01:48.912Z,991.22
2019-01-18T09:02:49.146Z,991.31
2019-01-18T09:03:49.199Z,991.28
2019-01-18T09:04:49.380Z,991.32
2019-01-18T09:05:49.558Z,991.28
2019-01-18T09:06:49.715Z,991.34
2019-01-18T09:07:49.875Z,991.33
2019-01-18T09:08:50.071Z,991.36
2019-01-18T09:09:50.186Z,991.34
2019-01-18T09:10:50.319Z,991.38
2019-01-18T09:11:50.509Z,991.42
2019-01-18T09:12:50.686Z,991.37
2019-01-18T09:13:50.913Z,991.39
2019-01-18T09:14:50.939Z,991.44
2019-01-18T09:15:51.170Z,991.41
2019-01-18T09:16:51.226Z,991.39
2019-01-18T09:17:51.467Z,991.38
2019-01-18T09:18:51.609Z,991.45
2019-01-18T09:19:51.817Z,991.50
2019-01-18T09:20:51.983Z,991.56
2019-01-18T09:21:52.127Z,991.64
2019-01-18T09:22:52.222Z,991.65
2019-01-18T09:23:52.432Z,991.69
2019-01-18T09:24:52.529Z,991.60
2019-01-18T09:25:52.775Z,991.60
2019-01-18T09:26:52.900Z,991.67
2019-01-18T09:27:53.052Z,991.62
2019-01-18T09:28:53.291Z,991.54
2019-01-18T09:29:53.340Z,991.62
2019-01-18T09:30:53.509Z,991.66
2019-01-18T09:31:53.705Z,991.76
2019-01-18T09:32:53.873Z,991.83
2019-01-18T09:33:54.051Z,991.74
2019-01-18T09:34:54.948Z,991.64
2019-01-18T09:35:54.293Z,991.69
2019-01-18T09:36:54.539Z,991.70
2019-01-18T09:37:54.692Z,991.68
2019-01-18T09:38:54.812Z,991.70
2019-01-18T09:39:54.993Z,991.72
2019-01-18T09:40:55.239Z,991.74
2019-01-18T09:41:55.300Z,991.69
2019-01-18T09:42:55.475Z,991.68
2019-01-18T09:43:55.608Z,991.62
2019-01-18T09:44:55.754Z,991.64
2019-01-18T09:45:55.987Z,991.68
2019-01-18T09:46:56.163Z,991.65
2019-01-18T09:47:56.308Z,991.67
2019-01-18T09:48:56.458Z,991.64
2019-01-18T09:49:56.633Z,991.69
2019-01-18T09:50:56.745Z,991.69
2019-01-18T09:51:56.858Z,991.74
2019-01-18T09:52:57.108Z,991.72
2019-01-18T09:53:57.220Z,991.69
2019-01-18T09:54:57.384Z,991.72
2019-01-18T09:55:57.555Z,991.71
2019-01-18T09:56:57.714Z,991.68
2019-01-18T09:57:57.902Z,991.78
2019-01-18T09:58:58.010Z,991.81
2019-01-18T09:59:58.171Z,991.85
2019-01-18T10:00:58.381Z,991.85
2019-01-18T10:01:58.497Z,991.83
2019-01-18T10:02:58.711Z,991.86
2019-01-18T10:03:58.879Z,991.86
2019-01-18T10:04:59.063Z,991.90
2019-01-18T10:05:59.255Z,991.91
2019-01-18T10:06:59.410Z,991.81
2019-01-18T10:07:59.571Z,991.80
2019-01-18T10:08:59.704Z,991.87
2019-01-18T10:09:59.833Z,991.84
2019-01-18T10:11:00.002Z,991.89
2019-01-18T10:12:00.218Z,991.94
2019-01-18T10:13:00.363Z,991.96
2019-01-18T10:14:00.528Z,991.95
2019-01-18T10:15:00.679Z,991.94
2019-01-18T10:16:00.898Z,991.97
2019-01-18T10:17:00.973Z,991.98
2019-01-18T10:18:01.262Z,991.98
2019-01-18T10:19:01.378Z,991.94
2019-01-18T10:20:01.489Z,991.96
2019-01-18T10:21:01.660Z,992.03
2019-01-18T10:22:01.846Z,992.03
2019-01-18T10:23:01.961Z,992.01
2019-01-18T10:24:02.181Z,992.03
2019-01-18T10:25:02.486Z,992.04
2019-01-18T10:26:02.598Z,992.07
2019-01-18T10:27:02.746Z,992.04
2019-01-18T10:28:03.030Z,992.10
2019-01-18T10:29:03.154Z,992.11
2019-01-18T10:30:03.349Z,992.07
2019-01-18T10:31:03.555Z,992.06
2019-01-18T10:32:03.749Z,992.10
2019-01-18T10:33:03.906Z,992.10
2019-01-18T10:34:04.038Z,992.13
2019-01-18T10:35:04.226Z,992.10
2019-01-18T10:36:04.440Z,992.06
2019-01-18T10:37:04.523Z,992.07
2019-01-18T10:38:04.796Z,992.10
2019-01-18T10:39:04.884Z,992.15
2019-01-18T10:40:05.028Z,992.22
2019-01-18T10:41:05.217Z,992.28
2019-01-18T10:42:05.386Z,992.86
2019-01-18T10:43:05.570Z,993.70
2019-01-18T10:44:06.148Z,993.79
2019-01-18T10:45:05.898Z,993.65
2019-01-18T10:46:06.056Z,993.62
2019-01-18T10:47:06.238Z,993.69
2019-01-18T10:48:06.373Z,993.70
2019-01-18T10:49:06.513Z,993.65
2019-01-18T10:50:06.669Z,993.61
2019-01-18T10:51:06.927Z,993.58
2019-01-18T10:52:07.070Z,993.55
2019-01-18T10:53:07.208Z,993.49
2019-01-18T10:54:07.361Z,993.54
2019-01-18T10:55:07.508Z,993.54
2019-01-18T10:56:07.752Z,993.48
2019-01-18T10:57:07.907Z,993.41
2019-01-18T10:58:08.102Z,993.35
2019-01-18T10:59:08.269Z,993.34
2019-01-18T11:00:08.441Z,993.30
2019-01-18T11:01:08.772Z,993.37
2019-01-18T11:02:08.810Z,993.30
2019-01-18T11:03:09.148Z,993.28
2019-01-18T11:04:09.155Z,993.22
2019-01-18T11:05:09.375Z,993.19
2019-01-18T11:06:09.506Z,993.20
2019-01-18T11:07:09.752Z,993.15
2019-01-18T11:08:09.873Z,993.15
2019-01-18T11:09:10.062Z,993.03
2019-01-18T11:10:10.313Z,992.67
2019-01-18T11:11:10.405Z,992.42
2019-01-18T11:12:10.576Z,992.38
2019-01-18T11:13:10.782Z,992.33
2019-01-18T11:14:10.991Z,992.34
2019-01-18T11:15:11.066Z,992.25
2019-01-18T11:16:11.294Z,992.25
2019-01-18T11:17:11.464Z,992.26
2019-01-18T11:18:11.683Z,992.20
2019-01-18T11:19:11.758Z,992.19
2019-01-18T11:20:11.902Z,992.22
2019-01-18T11:21:13.028Z,992.22
2019-01-18T11:22:12.329Z,992.22
2019-01-18T11:23:12.508Z,992.22
2019-01-18T11:24:12.696Z,992.24
2019-01-18T11:25:12.956Z,992.16
2019-01-18T11:26:13.151Z,992.17
2019-01-18T11:27:13.336Z,992.19
2019-01-18T11:28:13.474Z,992.20
2019-01-18T11:29:13.757Z,992.17
2019-01-18T11:30:13.884Z,992.18
2019-01-18T11:31:13.985Z,992.16
2019-01-18T11:32:14.239Z,992.17
2019-01-18T11:33:14.416Z,992.14
2019-01-18T11:34:14.591Z,992.13
2019-01-18T11:35:14.801Z,992.10
2019-01-18T11:36:14.918Z,992.10
2019-01-18T11:37:15.086Z,992.13
2019-01-18T11:38:15.289Z,992.09
2019-01-18T11:39:15.384Z,992.12
2019-01-18T11:40:15.585Z,992.10
2019-01-18T11:41:15.823Z,992.09
2019-01-18T11:42:16.069Z,992.09
2019-01-18T11:43:16.192Z,992.10
2019-01-18T11:44:16.389Z,992.13
2019-01-18T11:45:16.511Z,992.13
2019-01-18T11:46:16.711Z,992.13
2019-01-18T11:47:16.914Z,992.15
2019-01-18T11:48:17.086Z,992.18
2019-01-18T11:49:17.186Z,992.17
2019-01-18T11:50:17.399Z,992.18
2019-01-18T11:51:17.602Z,992.21
2019-01-18T11:52:17.828Z,992.21
2019-01-18T11:53:18.024Z,992.22
2019-01-18T11:54:18.053Z,992.18
2019-01-18T11:55:18.314Z,992.17
2019-01-18T11:56:18.413Z,992.19
2019-01-18T11:57:18.634Z,992.18
2019-01-18T11:58:18.772Z,992.24
2019-01-18T11:59:19.062Z,992.27
2019-01-18T12:00:19.108Z,992.30
2019-01-18T12:01:19.348Z,992.28
2019-01-18T12:02:22.217Z,992.27
2019-01-18T12:03:19.673Z,992.27
2019-01-18T12:04:19.910Z,992.27
2019-01-18T12:05:20.118Z,992.27
2019-01-18T12:06:20.186Z,992.28
2019-01-18T12:07:20.404Z,992.29
2019-01-18T12:08:20.651Z,992.28
2019-01-18T12:09:20.766Z,992.28
2019-01-18T12:10:20.870Z,992.29
2019-01-18T12:11:21.155Z,992.29
2019-01-18T12:12:21.316Z,992.29
2019-01-18T12:13:21.363Z,992.27
2019-01-18T12:14:21.658Z,992.26
2019-01-18T12:15:21.841Z,992.25
2019-01-18T12:16:22.106Z,992.21
2019-01-18T12:17:22.090Z,992.23
2019-01-18T12:18:22.321Z,992.22
2019-01-18T12:19:22.422Z,992.25
2019-01-18T12:20:22.721Z,992.27
2019-01-18T12:21:22.922Z,992.24
2019-01-18T12:22:22.957Z,992.25
2019-01-18T12:23:23.198Z,992.25
2019-01-18T12:24:23.462Z,992.26
2019-01-18T12:25:23.461Z,992.27
2019-01-18T12:26:23.642Z,992.26
2019-01-18T12:27:23.860Z,992.30
2019-01-18T12:28:23.931Z,992.29
2019-01-18T12:29:24.216Z,992.29
2019-01-18T12:30:24.296Z,992.28
2019-01-18T12:31:24.521Z,992.26
2019-01-18T12:32:28.824Z,992.25
2019-01-18T12:33:24.892Z,992.25
2019-01-18T12:34:25.105Z,992.21
2019-01-18T12:35:25.234Z,992.23
2019-01-18T12:36:25.454Z,992.22
2019-01-18T12:37:25.620Z,992.21
2019-01-18T12:38:25.921Z,992.24
2019-01-18T12:39:25.986Z,992.26
2019-01-18T12:40:26.114Z,992.24
2019-01-18T12:41:26.306Z,992.24
2019-01-18T12:42:26.587Z,992.20
2019-01-18T12:43:26.665Z,992.19
2019-01-18T12:44:26.887Z,992.15
2019-01-18T12:45:26.989Z,992.13
2019-01-18T12:46:27.187Z,992.12
2019-01-18T12:47:27.395Z,992.10
2019-01-18T12:48:27.629Z,992.10
2019-01-18T12:49:27.799Z,992.10
2019-01-18T12:50:27.985Z,992.19
2019-01-18T12:51:28.126Z,992.18
2019-01-18T12:52:28.286Z,992.20
2019-01-18T12:53:29.484Z,992.16
2019-01-18T12:54:28.600Z,992.20
2019-01-18T12:55:28.924Z,992.19
2019-01-18T12:56:29.051Z,992.21
2019-01-18T12:57:29.181Z,992.20
2019-01-18T12:58:29.378Z,992.20
2019-01-18T12:59:29.466Z,992.19
2019-01-18T13:00:29.648Z,992.15
2019-01-18T13:01:29.752Z,992.13
2019-01-18T13:02:35.342Z,992.16
2019-01-18T13:03:30.159Z,992.16
2019-01-18T13:04:30.353Z,992.19
2019-01-18T13:05:30.529Z,992.18
2019-01-18T13:06:30.731Z,992.18
2019-01-18T13:07:30.903Z,992.19
2019-01-18T13:08:31.080Z,992.18
2019-01-18T13:09:31.231Z,992.17
2019-01-18T13:10:31.404Z,992.18
2019-01-18T13:11:31.489Z,992.16
2019-01-18T13:12:31.754Z,992.21
2019-01-18T13:13:31.907Z,992.19
2019-01-18T13:14:32.026Z,992.18
2019-01-18T13:15:32.209Z,992.19
2019-01-18T13:16:32.380Z,992.14
2019-01-18T13:17:32.605Z,992.15
2019-01-18T13:18:32.723Z,992.19
2019-01-18T13:19:32.923Z,992.12
2019-01-18T13:20:33.141Z,992.13
2019-01-18T13:21:33.308Z,992.08
2019-01-18T13:22:33.479Z,992.07
2019-01-18T13:23:33.548Z,992.13
2019-01-18T13:24:33.862Z,992.04
2019-01-18T13:25:34.016Z,992.05
2019-01-18T13:26:34.134Z,992.00
2019-01-18T13:27:34.296Z,991.94
2019-01-18T13:28:34.506Z,991.88
2019-01-18T13:29:34.641Z,991.93
2019-01-18T13:30:34.794Z,991.84
2019-01-18T13:31:34.999Z,991.86
2019-01-18T13:32:35.098Z,991.87
2019-01-18T13:33:35.328Z,991.88
2019-01-18T13:34:35.518Z,991.88
2019-01-18T13:35:35.649Z,991.88
2019-01-18T13:36:35.804Z,991.96
2019-01-18T13:37:35.976Z,991.82
2019-01-18T13:38:36.215Z,991.81
2019-01-18T13:39:36.412Z,991.84
2019-01-18T13:40:36.582Z,991.95
2019-01-18T13:41:36.673Z,991.98
2019-01-18T13:42:36.899Z,992.03
2019-01-18T13:43:37.061Z,991.99
2019-01-18T13:44:43.394Z,991.96
2019-01-18T13:45:37.329Z,991.96
2019-01-18T13:46:37.567Z,992.01
2019-01-18T13:47:37.723Z,992.04
2019-01-18T13:48:37.903Z,991.98
2019-01-18T13:49:38.034Z,992.04
2019-01-18T13:50:38.236Z,992.02
2019-01-18T13:51:38.393Z,992.00
2019-01-18T13:52:38.521Z,992.06
2019-01-18T13:53:38.731Z,992.06
2019-01-18T13:54:38.892Z,992.13
2019-01-18T13:55:39.093Z,992.14
2019-01-18T13:56:39.246Z,992.08
2019-01-18T13:57:39.375Z,992.02
2019-01-18T13:58:39.559Z,992.01
2019-01-18T13:59:39.702Z,992.09
2019-01-18T14:00:39.942Z,992.13
2019-01-18T14:01:40.076Z,992.09
2019-01-18T14:02:40.672Z,992.14
2019-01-18T14:03:40.389Z,992.08
2019-01-18T14:04:40.560Z,992.06
2019-01-18T14:05:40.774Z,992.07
2019-01-18T14:06:40.867Z,992.10
2019-01-18T14:07:41.048Z,992.05
2019-01-18T14:08:41.263Z,992.05
2019-01-18T14:09:41.433Z,992.04
2019-01-18T14:10:41.654Z,992.05
2019-01-18T14:11:41.736Z,992.05
2019-01-18T14:12:41.959Z,992.03
2019-01-18T14:13:42.128Z,992.00
2019-01-18T14:14:42.305Z,992.01
2019-01-18T14:15:42.410Z,992.02
2019-01-18T14:16:42.609Z,992.01
2019-01-18T14:17:42.843Z,992.05
2019-01-18T14:18:42.983Z,992.01
2019-01-18T14:19:43.118Z,991.96
2019-01-18T14:20:43.296Z,991.96
2019-01-18T14:21:43.499Z,991.95
2019-01-18T14:22:43.584Z,991.90
2019-01-18T14:23:43.838Z,991.96
2019-01-18T14:24:43.938Z,991.99
2019-01-18T14:25:44.182Z,991.98
2019-01-18T14:26:44.368Z,991.94
2019-01-18T14:27:44.542Z,991.97
2019-01-18T14:28:44.637Z,991.98
2019-01-18T14:29:44.794Z,991.99
2019-01-18T14:30:44.989Z,991.95
2019-01-18T14:31:45.144Z,991.96
2019-01-18T14:32:45.287Z,991.92
2019-01-18T14:33:45.421Z,991.91
2019-01-18T14:34:45.667Z,991.89
2019-01-18T14:35:45.816Z,991.89
2019-01-18T14:36:45.933Z,991.90
2019-01-18T14:37:46.143Z,991.87
2019-01-18T14:38:46.305Z,991.86
2019-01-18T14:39:46.421Z,991.83
2019-01-18T14:40:46.636Z,991.85
2019-01-18T14:41:46.820Z,991.90
2019-01-18T14:42:46.979Z,991.87
2019-01-18T14:43:47.097Z,991.83
2019-01-18T14:44:47.335Z,991.88
2019-01-18T14:45:47.510Z,991.85
2019-01-18T14:46:47.665Z,991.82
2019-01-18T14:47:47.774Z,991.86
2019-01-18T14:48:47.987Z,991.85
2019-01-18T14:49:48.139Z,991.82
2019-01-18T14:50:48.293Z,991.86
2019-01-18T14:51:48.451Z,991.84
2019-01-18T14:52:48.667Z,991.80
2019-01-18T14:53:48.845Z,991.80
2019-01-18T14:54:49.038Z,991.76
2019-01-18T14:55:49.153Z,991.79
2019-01-18T14:56:49.286Z,991.79
2019-01-18T14:57:49.458Z,991.80
2019-01-18T14:58:49.653Z,991.83
2019-01-18T14:59:49.769Z,991.83
2019-01-18T15:00:49.986Z,991.90
2019-01-18T15:01:50.194Z,991.82
2019-01-18T15:02:50.341Z,991.87
2019-01-18T15:03:54.067Z,991.88
2019-01-18T15:04:50.665Z,991.84
2019-01-18T15:05:50.797Z,991.86
2019-01-18T15:06:50.956Z,991.81
2019-01-18T15:07:52.114Z,991.78
2019-01-18T15:08:51.309Z,991.76
2019-01-18T15:09:51.396Z,991.76
2019-01-18T15:10:51.626Z,991.75
2019-01-18T15:11:51.695Z,991.78
2019-01-18T15:12:51.872Z,991.81
2019-01-18T15:13:52.059Z,991.74
2019-01-18T15:14:52.230Z,991.79
2019-01-18T15:15:52.377Z,991.78
2019-01-18T15:16:52.505Z,991.75
2019-01-18T15:17:52.745Z,991.70
2019-01-18T15:18:52.898Z,991.68
2019-01-18T15:19:53.044Z,991.66
2019-01-18T15:20:53.242Z,991.68
2019-01-18T15:21:53.389Z,991.73
2019-01-18T15:22:53.556Z,991.68
2019-01-18T15:23:53.723Z,991.72
2019-01-18T15:24:53.901Z,991.74
2019-01-18T15:25:53.967Z,991.71
2019-01-18T15:26:54.202Z,991.74
2019-01-18T15:27:54.301Z,991.74
2019-01-18T15:28:54.440Z,991.75
2019-01-18T15:29:54.696Z,991.77
2019-01-18T15:30:54.783Z,991.76
2019-01-18T15:31:54.969Z,991.78
2019-01-18T15:32:55.085Z,991.76
2019-01-18T15:33:56.369Z,991.75
2019-01-18T15:34:55.438Z,991.74
2019-01-18T15:35:55.553Z,991.78
2019-01-18T15:36:55.693Z,991.75
2019-01-18T15:37:55.894Z,991.77
2019-01-18T15:38:56.022Z,991.77
2019-01-18T15:39:56.231Z,991.80
2019-01-18T15:40:56.438Z,991.85
2019-01-18T15:41:56.528Z,991.81
2019-01-18T15:42:56.750Z,991.84
2019-01-18T15:43:56.865Z,991.83
2019-01-18T15:44:57.037Z,991.86
2019-01-18T15:45:57.158Z,991.86
2019-01-18T15:46:57.356Z,991.85
2019-01-18T15:47:57.527Z,991.83
2019-01-18T15:48:57.732Z,991.87
2019-01-18T15:49:57.835Z,991.87
2019-01-18T15:50:58.028Z,991.85
2019-01-18T15:51:58.112Z,991.93
2019-01-18T15:52:58.346Z,991.93
2019-01-18T15:53:58.441Z,991.99
2019-01-18T15:54:58.655Z,992.06
2019-01-18T15:55:58.797Z,992.00
2019-01-18T15:56:58.907Z,992.05
2019-01-18T15:57:59.083Z,992.04
2019-01-18T15:58:59.194Z,991.98
2019-01-18T15:59:59.362Z,992.02
2019-01-18T16:00:59.556Z,992.05
2019-01-18T16:01:59.714Z,992.11
2019-01-18T16:02:59.862Z,992.10
2019-01-18T16:04:00.037Z,992.10
2019-01-18T16:05:00.223Z,992.10
2019-01-18T16:06:00.389Z,992.08
2019-01-18T16:07:00.490Z,992.13
2019-01-18T16:08:00.685Z,992.13
2019-01-18T16:09:00.827Z,992.19
2019-01-18T16:10:00.969Z,992.13
2019-01-18T16:11:01.194Z,992.14
2019-01-18T16:12:01.347Z,992.10
2019-01-18T16:13:01.520Z,992.13
2019-01-18T16:14:01.636Z,992.19
2019-01-18T16:15:01.761Z,992.16
2019-01-18T16:16:01.969Z,992.12
2019-01-18T16:17:02.205Z,992.10
2019-01-18T16:18:02.323Z,992.15
2019-01-18T16:19:02.489Z,992.16
2019-01-18T16:20:02.662Z,992.15
2019-01-18T16:21:02.846Z,992.12
2019-01-18T16:22:02.947Z,992.10
2019-01-18T16:23:03.202Z,992.08
2019-01-18T16:24:03.348Z,992.11
2019-01-18T16:25:03.486Z,992.10
2019-01-18T16:26:03.638Z,992.09
2019-01-18T16:27:03.790Z,992.10
2019-01-18T16:28:03.906Z,992.08
2019-01-18T16:29:04.065Z,992.06
2019-01-18T16:30:04.227Z,992.07
2019-01-18T16:31:04.429Z,992.11
2019-01-18T16:32:04.622Z,992.06
2019-01-18T16:33:04.733Z,992.14
2019-01-18T16:34:04.892Z,992.12
2019-01-18T16:35:05.022Z,992.07
2019-01-18T16:36:05.212Z,992.10